Time,TemperatureF,DewpointF,PressureIn,WindDirection,WindDirectionDegrees,WindSpeedMPH,WindSpeedGustMPH,Humidity,HourlyPrecipIn,Conditions,Clouds,dailyrainin,SolarRadiationWatts/m^2,SoftwareType,DateUTC
2013-05-27 00:12:00,48.0,36.0,-100.00,SE,124,4.0,7.0,63,0.00,,,0.02,0.000000,,2013-05-27 10:12:00,
2013-05-27 00:22:00,48.0,36.0,-100.00,SE,124,4.0,7.0,63,0.00,,,0.02,0.000000,,2013-05-27 10:22:00,
2013-05-27 00:32:00,48.0,36.0,-100.00,SE,124,4.0,7.0,63,0.00,,,0.02,0.000000,,2013-05-27 10:32:00,
2013-05-27 00:42:00,48.0,36.0,-100.00,SE,124,4.0,7.0,63,0.00,,,0.02,0.000000,,2013-05-27 10:42:00,
2013-05-27 01:11:00,49.0,39.0,-100.00,ENE,72,3.0,9.0,68,0.00,,,0.02,0.000000,,2013-05-27 11:11:00,
2013-05-27 01:21:00,49.0,39.0,-100.00,ENE,72,3.0,9.0,68,0.00,,,0.02,0.000000,,2013-05-27 11:21:00,
2013-05-27 01:32:00,49.0,39.0,-100.00,ENE,72,3.0,9.0,68,0.00,,,0.02,0.000000,,2013-05-27 11:32:00,
2013-05-27 01:42:00,49.0,39.0,-100.00,ENE,72,3.0,9.0,68,0.00,,,0.02,0.000000,,2013-05-27 11:42:00,
2013-05-27 02:11:00,49.0,40.0,-100.00,ESE,106,4.0,7.0,71,0.00,,,0.02,0.000000,,2013-05-27 12:11:00,
2013-05-27 02:21:00,49.0,40.0,-100.00,ESE,106,4.0,7.0,71,0.00,,,0.02,0.000000,,2013-05-27 12:21:00,
2013-05-27 02:31:00,49.0,40.0,-100.00,ESE,106,4.0,7.0,71,0.00,,,0.02,0.000000,,2013-05-27 12:31:00,
2013-05-27 02:42:00,49.0,40.0,-100.00,ESE,106,4.0,7.0,71,0.00,,,0.02,0.000000,,2013-05-27 12:42:00,
2013-05-27 03:11:00,51.0,39.0,-100.00,ENE,61,7.0,16.0,63,0.00,,,0.02,0.000000,,2013-05-27 13:11:00,
2013-05-27 03:21:00,51.0,39.0,-100.00,ENE,61,7.0,16.0,63,0.00,,,0.02,0.000000,,2013-05-27 13:21:00,
2013-05-27 03:32:00,51.0,39.0,-100.00,ENE,61,7.0,16.0,63,0.00,,,0.02,0.000000,,2013-05-27 13:32:00,
2013-05-27 03:41:00,51.0,39.0,-100.00,ENE,61,7.0,16.0,63,0.00,,,0.02,0.000000,,2013-05-27 13:41:00,
2013-05-27 04:11:00,49.0,37.0,-100.00,East,96,4.0,13.0,62,0.00,,,0.02,0.000000,,2013-05-27 14:11:00,
2013-05-27 04:21:00,49.0,37.0,-100.00,East,96,4.0,13.0,62,0.00,,,0.02,0.000000,,2013-05-27 14:21:00,
2013-05-27 04:32:00,49.0,37.0,-100.00,East,96,4.0,13.0,62,0.00,,,0.02,0.000000,,2013-05-27 14:32:00,
2013-05-27 04:42:00,49.0,37.0,-100.00,East,96,4.0,13.0,62,0.00,,,0.02,0.000000,,2013-05-27 14:42:00,
2013-05-27 05:11:00,48.0,34.0,-100.00,East,98,5.0,6.0,58,0.00,,,0.02,0.000000,,2013-05-27 15:11:00,
2013-05-27 05:21:00,48.0,34.0,-100.00,East,98,5.0,6.0,58,0.00,,,0.02,0.000000,,2013-05-27 15:21:00,
2013-05-27 05:33:00,48.0,34.0,-100.00,East,98,5.0,6.0,58,0.00,,,0.02,0.000000,,2013-05-27 15:33:00,
2013-05-27 05:43:00,48.0,34.0,-100.00,East,98,5.0,6.0,58,0.00,,,0.02,0.000000,,2013-05-27 15:43:00,
2013-05-27 06:12:00,48.0,32.0,-100.00,East,95,0.0,7.0,54,0.00,,,0.02,1.000000,,2013-05-27 16:12:00,
2013-05-27 06:23:00,48.0,32.0,-100.00,East,95,0.0,7.0,54,0.00,,,0.02,1.000000,,2013-05-27 16:23:00,
2013-05-27 06:33:00,48.0,32.0,-100.00,East,95,0.0,7.0,54,0.00,,,0.02,1.000000,,2013-05-27 16:33:00,
2013-05-27 06:42:00,48.0,32.0,-100.00,East,95,0.0,7.0,54,0.00,,,0.02,1.000000,,2013-05-27 16:42:00,
2013-05-27 07:11:00,49.0,37.0,-100.00,ESE,121,0.0,0.0,62,0.00,,,0.02,16.000000,,2013-05-27 17:11:00,
2013-05-27 07:22:00,49.0,37.0,-100.00,ESE,121,0.0,0.0,62,0.00,,,0.02,16.000000,,2013-05-27 17:22:00,
2013-05-27 07:32:00,49.0,37.0,-100.00,ESE,121,0.0,0.0,62,0.00,,,0.02,16.000000,,2013-05-27 17:32:00,
2013-05-27 07:42:00,49.0,37.0,-100.00,ESE,121,0.0,0.0,62,0.00,,,0.02,16.000000,,2013-05-27 17:42:00,
2013-05-27 08:11:00,56.0,41.0,-100.00,ESE,112,1.0,4.0,58,0.00,,,0.02,170.000000,,2013-05-27 18:11:00,
2013-05-27 08:21:00,56.0,41.0,-100.00,ESE,112,1.0,4.0,58,0.00,,,0.02,170.000000,,2013-05-27 18:21:00,
2013-05-27 08:32:00,56.0,41.0,-100.00,ESE,112,1.0,4.0,58,0.00,,,0.02,170.000000,,2013-05-27 18:32:00,
2013-05-27 08:42:00,56.0,41.0,-100.00,ESE,112,1.0,4.0,58,0.00,,,0.02,170.000000,,2013-05-27 18:42:00,
2013-05-27 09:11:00,58.0,45.0,-100.00,NW,318,4.0,7.0,63,0.00,,,0.02,528.000000,,2013-05-27 19:11:00,
2013-05-27 09:21:00,58.0,45.0,-100.00,NW,318,4.0,7.0,63,0.00,,,0.02,528.000000,,2013-05-27 19:21:00,
2013-05-27 09:31:00,58.0,45.0,-100.00,NW,318,4.0,7.0,63,0.00,,,0.02,528.000000,,2013-05-27 19:31:00,
2013-05-27 09:41:00,58.0,45.0,-100.00,NW,318,4.0,7.0,63,0.00,,,0.02,528.000000,,2013-05-27 19:41:00,
2013-05-27 10:11:00,56.0,52.0,-100.00,NNW,332,5.0,9.0,85,0.00,,,0.02,540.000000,,2013-05-27 20:11:00,
2013-05-27 10:22:00,56.0,52.0,-100.00,NNW,332,5.0,9.0,85,0.00,,,0.02,540.000000,,2013-05-27 20:22:00,
2013-05-27 10:32:00,56.0,52.0,-100.00,NNW,332,5.0,9.0,85,0.00,,,0.02,540.000000,,2013-05-27 20:32:00,
2013-05-27 10:41:00,56.0,52.0,-100.00,NNW,332,5.0,9.0,85,0.00,,,0.02,540.000000,,2013-05-27 20:41:00,
2013-05-27 11:12:00,54.0,52.0,-100.00,NNW,345,4.0,11.0,93,0.01,,,0.03,424.000000,,2013-05-27 21:12:00,
2013-05-27 11:21:00,54.0,52.0,-100.00,NNW,345,4.0,11.0,93,0.01,,,0.03,424.000000,,2013-05-27 21:21:00,
2013-05-27 11:33:00,54.0,52.0,-100.00,NNW,345,4.0,11.0,93,0.01,,,0.03,424.000000,,2013-05-27 21:33:00,
2013-05-27 11:42:00,54.0,52.0,-100.00,NNW,345,4.0,11.0,93,0.01,,,0.03,424.000000,,2013-05-27 21:42:00,
2013-05-27 12:12:00,54.0,53.0,-100.00,NW,315,5.0,7.0,97,0.22,,,0.25,192.000000,,2013-05-27 22:12:00,
2013-05-27 12:22:00,54.0,53.0,-100.00,NW,315,5.0,7.0,97,0.22,,,0.25,192.000000,,2013-05-27 22:22:00,
2013-05-27 12:32:00,54.0,53.0,-100.00,NW,315,5.0,7.0,97,0.22,,,0.25,192.000000,,2013-05-27 22:32:00,
2013-05-27 12:42:00,54.0,53.0,-100.00,NW,315,5.0,7.0,97,0.22,,,0.25,192.000000,,2013-05-27 22:42:00,
2013-05-27 13:12:00,54.0,53.0,-100.00,WNW,298,4.0,8.0,97,0.16,,,0.41,211.000000,,2013-05-27 23:12:00,
2013-05-27 13:22:00,54.0,53.0,-100.00,WNW,298,4.0,8.0,97,0.16,,,0.41,211.000000,,2013-05-27 23:22:00,
2013-05-27 13:32:00,54.0,53.0,-100.00,WNW,298,4.0,8.0,97,0.16,,,0.41,211.000000,,2013-05-27 23:32:00,
2013-05-27 13:42:00,54.0,53.0,-100.00,WNW,298,4.0,8.0,97,0.16,,,0.41,211.000000,,2013-05-27 23:42:00,
2013-05-27 14:11:00,54.0,53.0,-100.00,NW,309,3.0,7.0,97,0.07,,,0.48,243.000000,,2013-05-28 00:11:00,
2013-05-27 14:21:00,54.0,53.0,-100.00,NW,309,3.0,7.0,97,0.07,,,0.48,243.000000,,2013-05-28 00:21:00,
2013-05-27 14:31:00,54.0,53.0,-100.00,NW,309,3.0,7.0,97,0.07,,,0.48,243.000000,,2013-05-28 00:31:00,
2013-05-27 14:41:00,54.0,53.0,-100.00,NW,309,3.0,7.0,97,0.07,,,0.48,243.000000,,2013-05-28 00:41:00,
2013-05-27 15:11:00,55.0,54.0,-100.00,NW,305,3.0,7.0,96,0.07,,,0.53,297.000000,,2013-05-28 01:11:00,
2013-05-27 15:21:00,55.0,54.0,-100.00,NW,305,3.0,7.0,96,0.07,,,0.53,297.000000,,2013-05-28 01:21:00,
2013-05-27 15:31:00,55.0,54.0,-100.00,NW,305,3.0,7.0,96,0.07,,,0.53,297.000000,,2013-05-28 01:31:00,
2013-05-27 15:41:00,55.0,54.0,-100.00,NW,305,3.0,7.0,96,0.07,,,0.53,297.000000,,2013-05-28 01:41:00,
2013-05-27 16:11:00,54.0,53.0,-100.00,NNE,20,3.0,9.0,98,0.11,,,0.64,170.000000,,2013-05-28 02:11:00,
2013-05-27 16:21:00,54.0,53.0,-100.00,NNE,20,3.0,9.0,98,0.11,,,0.64,170.000000,,2013-05-28 02:21:00,
2013-05-27 16:32:00,54.0,53.0,-100.00,NNE,20,3.0,9.0,98,0.11,,,0.64,170.000000,,2013-05-28 02:32:00,
2013-05-27 16:41:00,54.0,53.0,-100.00,NNE,20,3.0,9.0,98,0.11,,,0.64,170.000000,,2013-05-28 02:41:00,
2013-05-27 17:11:00,54.0,53.0,-100.00,West,279,3.0,8.0,98,0.02,,,0.66,151.000000,,2013-05-28 03:11:00,
2013-05-27 17:21:00,54.0,53.0,-100.00,West,279,3.0,8.0,98,0.02,,,0.66,151.000000,,2013-05-28 03:21:00,
2013-05-27 17:33:00,54.0,53.0,-100.00,West,279,3.0,8.0,98,0.02,,,0.66,151.000000,,2013-05-28 03:33:00,
2013-05-27 17:43:00,54.0,53.0,-100.00,West,279,3.0,8.0,98,0.02,,,0.66,151.000000,,2013-05-28 03:43:00,
2013-05-27 18:12:00,53.0,52.0,-100.00,WNW,296,2.0,7.0,98,0.01,,,0.67,56.000000,,2013-05-28 04:12:00,
2013-05-27 18:22:00,53.0,52.0,-100.00,WNW,296,2.0,7.0,98,0.01,,,0.67,56.000000,,2013-05-28 04:22:00,
2013-05-27 18:33:00,53.0,52.0,-100.00,WNW,296,2.0,7.0,98,0.01,,,0.67,56.000000,,2013-05-28 04:33:00,
2013-05-27 18:42:00,53.0,52.0,-100.00,WNW,296,2.0,7.0,98,0.01,,,0.67,56.000000,,2013-05-28 04:42:00,
2013-05-27 19:12:00,51.0,51.0,-100.00,NNE,29,4.0,8.0,99,0.00,,,0.67,17.000000,,2013-05-28 05:12:00,
2013-05-27 19:22:00,51.0,51.0,-100.00,NNE,29,4.0,8.0,99,0.00,,,0.67,17.000000,,2013-05-28 05:22:00,
2013-05-27 19:32:00,51.0,51.0,-100.00,NNE,29,4.0,8.0,99,0.00,,,0.67,17.000000,,2013-05-28 05:32:00,
2013-05-27 19:42:00,51.0,51.0,-100.00,NNE,29,4.0,8.0,99,0.00,,,0.67,17.000000,,2013-05-28 05:42:00,
2013-05-27 20:11:00,51.0,51.0,-100.00,ENE,66,3.0,5.0,99,0.01,,,0.68,1.000000,,2013-05-28 06:11:00,
2013-05-27 20:21:00,51.0,51.0,-100.00,ENE,66,3.0,5.0,99,0.01,,,0.68,1.000000,,2013-05-28 06:21:00,
2013-05-27 20:31:00,51.0,51.0,-100.00,ENE,66,3.0,5.0,99,0.01,,,0.68,1.000000,,2013-05-28 06:31:00,
2013-05-27 20:41:00,51.0,51.0,-100.00,ENE,66,3.0,5.0,99,0.01,,,0.68,1.000000,,2013-05-28 06:41:00,
2013-05-27 21:11:00,50.0,49.0,-100.00,East,101,3.0,5.0,98,0.00,,,0.68,0.000000,,2013-05-28 07:11:00,
2013-05-27 21:21:00,50.0,49.0,-100.00,East,101,3.0,5.0,98,0.00,,,0.68,0.000000,,2013-05-28 07:21:00,
2013-05-27 21:32:00,50.0,49.0,-100.00,East,101,3.0,5.0,98,0.00,,,0.68,0.000000,,2013-05-28 07:32:00,
2013-05-27 21:42:00,50.0,49.0,-100.00,East,101,3.0,5.0,98,0.00,,,0.68,0.000000,,2013-05-28 07:42:00,
2013-05-27 22:11:00,50.0,47.0,-100.00,ENE,59,5.0,11.0,90,0.00,,,0.68,0.000000,,2013-05-28 08:11:00,
2013-05-27 22:21:00,50.0,47.0,-100.00,ENE,59,5.0,11.0,90,0.00,,,0.68,0.000000,,2013-05-28 08:21:00,
2013-05-27 22:32:00,50.0,47.0,-100.00,ENE,59,5.0,11.0,90,0.00,,,0.68,0.000000,,2013-05-28 08:32:00,
2013-05-27 22:42:00,50.0,47.0,-100.00,ENE,59,5.0,11.0,90,0.00,,,0.68,0.000000,,2013-05-28 08:42:00,
2013-05-27 23:11:00,51.0,45.0,-100.00,East,97,0.0,6.0,81,0.00,,,0.68,0.000000,,2013-05-28 09:11:00,
2013-05-27 23:21:00,51.0,45.0,-100.00,East,97,0.0,6.0,81,0.00,,,0.68,0.000000,,2013-05-28 09:21:00,
2013-05-27 23:33:00,51.0,45.0,-100.00,East,97,0.0,6.0,81,0.00,,,0.68,0.000000,,2013-05-28 09:33:00,
2013-05-27 23:42:00,51.0,45.0,-100.00,East,97,0.0,6.0,81,0.00,,,0.68,0.000000,,2013-05-28 09:42:00,